Time;durP1;ratioP1;P1;durP2;ratioP2;P2;SDS_P1;SDS_P2;PMS_P1;PMS_P2;Temp;Humidity;BMP_temperature;BMP_pressure;BME280_temperature;BME280_humidity;BME280_pressure;Samples;Min_cycle;Max_cycle;Signal;HPM_P1;HPM_P2
2022/03/20 00:02:28;;;;;;;37.30;19.92;;;;;;;5.34;49.29;100282.03;5225623;28;20159;-80
2022/03/20 00:05:19;;;;;;;41.22;21.50;;;;;;;5.15;50.16;100270.75;5214395;28;20057;-81
2022/03/20 00:08:11;;;;;;;38.95;19.77;;;;;;;5.40;48.37;100275.59;5211683;28;20060;-81
2022/03/20 00:11:02;;;;;;;36.55;19.20;;;;;;;5.49;48.05;100264.59;5214661;28;20079;-81
2022/03/20 00:13:53;;;;;;;33.25;19.25;;;;;;;5.39;48.19;100258.09;5210941;28;20056;-81
2022/03/20 00:16:43;;;;;;;36.95;19.85;;;;;;;5.29;48.47;100262.16;5208540;28;20631;-80
2022/03/20 00:19:33;;;;;;;34.13;18.45;;;;;;;5.47;47.61;100255.94;5226343;28;20056;-80
2022/03/20 00:22:24;;;;;;;35.17;18.27;;;;;;;5.54;47.28;100259.94;5205576;28;20060;-80
2022/03/20 00:25:16;;;;;;;36.83;18.75;;;;;;;5.71;47.05;100263.47;5226479;28;20056;-80
2022/03/20 00:28:06;;;;;;;35.25;18.88;;;;;;;5.64;47.06;100262.94;5225544;28;20060;-80
2022/03/20 00:30:57;;;;;;;39.03;19.42;;;;;;;5.49;47.66;100254.06;5210370;28;20052;-81
2022/03/20 00:33:47;;;;;;;36.00;18.73;;;;;;;5.54;46.96;100252.06;5211421;28;20045;-81
2022/03/20 00:36:38;;;;;;;34.85;18.83;;;;;;;5.59;47.12;100254.44;5224204;28;20435;-80
2022/03/20 00:39:28;;;;;;;36.03;18.58;;;;;;;5.68;46.96;100243.41;5226265;28;20201;-80
2022/03/20 00:42:19;;;;;;;33.78;18.52;;;;;;;5.84;46.36;100243.44;5211200;28;20518;-79
2022/03/20 00:45:10;;;;;;;34.17;18.55;;;;;;;5.58;46.95;100243.06;5225217;28;20053;-81
2022/03/20 00:48:01;;;;;;;32.92;18.67;;;;;;;5.66;47.63;100255.78;5205798;28;20076;-80
2022/03/20 00:50:51;;;;;;;36.05;19.15;;;;;;;5.55;48.00;100253.75;5210184;28;20060;-81
2022/03/20 00:53:41;;;;;;;35.55;19.02;;;;;;;5.46;47.74;100245.47;5225832;28;20055;-81
2022/03/20 00:56:33;;;;;;;32.92;18.98;;;;;;;5.45;48.83;100236.75;5235667;28;20111;-79
2022/03/20 00:59:24;;;;;;;37.45;18.80;;;;;;;5.44;48.30;100248.22;5226358;28;20064;-81
2022/03/20 01:02:15;;;;;;;36.55;19.42;;;;;;;5.28;48.10;100223.63;5225173;28;20056;-81
2022/03/20 01:05:06;;;;;;;32.55;18.63;;;;;;;5.54;47.44;100251.22;5225136;28;20424;-80
2022/03/20 01:07:59;;;;;;;39.63;19.55;;;;;;;5.79;46.97;100241.03;5240341;28;20134;-79
2022/03/20 01:10:48;;;;;;;35.75;19.73;;;;;;;5.47;47.59;100242.78;5225582;28;20056;-80
2022/03/20 01:13:39;;;;;;;36.63;19.30;;;;;;;5.36;48.99;100247.75;5223892;28;20056;-80
2022/03/20 01:16:29;;;;;;;37.65;20.38;;;;;;;5.56;47.43;100225.66;5224529;28;20056;-81
2022/03/20 01:19:19;;;;;;;36.08;19.30;;;;;;;5.43;48.38;100243.88;5190168;28;20191;-81
2022/03/20 01:22:09;;;;;;;34.30;18.80;;;;;;;5.70;47.21;100227.56;5224407;28;20053;-81
2022/03/20 01:25:00;;;;;;;39.58;19.17;;;;;;;5.57;47.00;100228.22;5196265;28;20041;-81
2022/03/20 01:27:50;;;;;;;35.30;18.52;;;;;;;5.58;47.45;100239.59;5224444;28;20095;-81
2022/03/20 01:30:40;;;;;;;37.42;19.38;;;;;;;5.55;47.50;100222.16;5225612;28;20064;-81
2022/03/20 01:33:30;;;;;;;40.40;19.52;;;;;;;5.46;48.20;100220.03;5224363;28;20052;-81
2022/03/20 01:36:21;;;;;;;35.22;18.95;;;;;;;5.34;48.84;100218.91;5224258;28;20056;-80
2022/03/20 01:39:10;;;;;;;35.60;19.27;;;;;;;5.38;49.19;100228.31;5224501;28;20682;-81
2022/03/20 01:42:01;;;;;;;37.55;21.02;;;;;;;5.32;49.22;100209.38;5225549;28;20064;-80
2022/03/20 01:44:51;;;;;;;39.15;19.65;;;;;;;5.53;48.12;100213.53;5209959;28;20053;-81
2022/03/20 01:47:43;;;;;;;40.25;19.60;;;;;;;5.43;48.37;100222.84;5217524;28;20768;-80
2022/03/20 01:50:34;;;;;;;38.92;20.02;;;;;;;5.18;49.75;100203.06;5192638;28;20092;-81
2022/03/20 01:53:29;;;;;;;33.35;18.70;;;;;;;5.30;48.25;100198.13;5209668;28;20053;-80
2022/03/20 01:56:19;;;;;;;37.50;19.25;;;;;;;5.81;47.23;100212.88;5221453;28;20079;-80
2022/03/20 01:59:09;;;;;;;42.20;20.65;;;;;;;5.46;48.16;100190.25;5224742;28;20053;-80
2022/03/20 02:02:03;;;;;;;37.45;20.13;;;;;;;5.48;48.53;100210.28;5223927;28;20041;-80
2022/03/20 02:04:53;;;;;;;38.15;18.52;;;;;;;5.41;48.64;100201.03;5225411;28;20750;-81
2022/03/20 02:07:44;;;;;;;40.33;20.08;;;;;;;5.50;48.85;100204.97;5230413;28;20247;-79
2022/03/20 02:10:37;;;;;;;35.33;18.70;;;;;;;5.40;48.73;100201.97;5228017;28;20418;-80
2022/03/20 02:13:28;;;;;;;34.65;16.65;;;;;;;5.86;47.27;100204.72;5228941;28;20434;-80
2022/03/20 02:16:19;;;;;;;36.22;20.02;;;;;;;5.65;48.05;100194.44;5230538;28;20045;-80
2022/03/20 02:19:13;;;;;;;36.63;19.20;;;;;;;5.45;48.22;100176.25;5216497;28;20057;-80
2022/03/20 02:22:04;;;;;;;;;;;;;;;5.53;48.26;100189.84;5236623;28;20049;-79
2022/03/20 02:24:53;;;;;;;39.92;20.33;;;;;;;5.52;48.24;100188.13;5238039;28;19920;-80
2022/03/20 02:27:44;;;;;;;39.05;19.33;;;;;;;5.99;47.49;100189.13;5231028;28;20043;-80
2022/03/20 02:30:35;;;;;;;39.20;19.90;;;;;;;5.69;47.54;100187.22;5210194;28;20187;-80
2022/03/20 02:33:27;;;;;;;40.55;20.80;;;;;;;5.47;48.53;100192.81;5230471;28;20075;-81
2022/03/20 02:36:18;;;;;;;37.97;20.65;;;;;;;5.53;48.10;100170.56;5228301;28;20094;-79
2022/03/20 02:39:08;;;;;;;33.10;18.90;;;;;;;5.51;48.10;100180.34;5229276;28;20057;-80
2022/03/20 02:42:04;;;;;;;37.50;19.80;;;;;;;5.85;47.05;100160.91;5229225;28;20114;-80
2022/03/20 02:45:02;;;;;;;36.22;19.58;;;;;;;6.06;46.59;100180.81;5213716;28;20111;-80
2022/03/20 02:47:52;;;;;;;34.95;19.38;;;;;;;6.00;46.20;100161.88;5223652;28;20045;-79
2022/03/20 02:50:42;;;;;;;36.00;20.33;;;;;;;5.94;46.63;100157.81;5217756;28;20056;-80
2022/03/20 02:53:36;;;;;;;38.75;19.15;;;;;;;5.84;46.89;100148.69;5199595;28;20053;-80
2022/03/20 02:56:27;;;;;;;35.42;19.50;;;;;;;6.13;45.97;100154.16;5211320;28;20045;-80
2022/03/20 02:59:17;;;;;;;36.30;20.50;;;;;;;5.98;47.20;100167.22;5229128;28;20071;-81
2022/03/20 03:02:09;;;;;;;37.88;20.13;;;;;;;5.84;46.56;100156.59;5217007;28;20499;-80
2022/03/20 03:05:00;;;;;;;44.20;19.67;;;;;;;6.10;46.24;100150.75;5206779;28;20538;-81
2022/03/20 03:11:00;;;;;;;41.80;20.40;;;;;;;5.91;47.22;100163.22;5225083;28;20053;-79
2022/03/20 03:15:18;;;;;;;38.78;19.20;;;;;;;5.92;47.27;100170.16;5230904;28;20048;-80
2022/03/20 03:17:06;;;;;;;36.20;19.85;;;;;;;5.58;48.36;100172.03;5226230;28;20126;-80
2022/03/20 03:19:57;;;;;;;40.17;20.23;;;;;;;5.88;47.86;100173.91;5220391;28;20055;-81
2022/03/20 03:22:47;;;;;;;38.22;19.92;;;;;;;6.08;47.12;100178.94;5207304;28;20056;-81
2022/03/20 03:25:38;;;;;;;44.15;20.45;;;;;;;6.22;46.19;100179.94;5207012;28;20052;-81
2022/03/20 03:28:34;;;;;;;39.47;20.13;;;;;;;5.88;47.60;100173.91;5227643;28;20053;-81
2022/03/20 03:31:25;;;;;;;40.47;21.05;;;;;;;5.84;47.88;100177.66;5200286;28;20060;-80
2022/03/20 03:37:24;;;;;;;42.53;20.92;;;;;;;5.69;49.21;100167.94;5226870;28;20052;-80
2022/03/20 03:40:14;;;;;;;43.65;21.10;;;;;;;5.57;48.99;100172.97;5212228;28;20075;-81
2022/03/20 03:43:05;;;;;;;38.88;21.30;;;;;;;5.57;49.31;100180.84;5208470;28;20146;-80
2022/03/20 03:46:01;;;;;;;39.65;20.88;;;;;;;5.61;49.45;100186.78;5205152;28;20585;-81
2022/03/20 03:48:51;;;;;;;37.47;19.90;;;;;;;5.74;49.43;100198.34;5192681;28;20060;-81
2022/03/20 03:51:42;;;;;;;42.65;21.45;;;;;;;5.70;49.55;100190.72;5226272;28;20094;-81
2022/03/20 03:54:32;;;;;;;37.72;20.63;;;;;;;5.71;49.56;100197.69;5223358;28;20061;-80
2022/03/20 03:57:22;;;;;;;38.85;20.73;;;;;;;5.85;49.05;100182.81;5224552;28;20513;-81
2022/03/20 04:00:14;;;;;;;39.88;21.10;;;;;;;5.85;49.33;100190.72;5221818;28;20053;-80
2022/03/20 04:03:08;;;;;;;41.90;22.10;;;;;;;5.58;49.33;100169.38;5226556;28;20055;-80
2022/03/20 04:06:04;;;;;;;41.10;21.70;;;;;;;5.72;49.50;100187.06;5225218;28;20052;-81
2022/03/20 04:08:54;;;;;;;46.03;20.90;;;;;;;5.64;50.00;100195.38;5225738;28;20122;-81
2022/03/20 04:11:45;;;;;;;38.40;21.20;;;;;;;5.83;49.67;100183.84;5226782;28;20522;-80
2022/03/20 04:14:35;;;;;;;41.75;21.70;;;;;;;5.76;49.83;100172.81;5225312;28;20052;-80
2022/03/20 04:17:25;;;;;;;42.88;22.05;;;;;;;5.87;49.43;100173.06;5225616;28;20041;-81
2022/03/20 04:20:16;;;;;;;41.33;21.50;;;;;;;5.97;49.51;100180.47;5226876;28;20566;-80
2022/03/20 04:26:17;;;;;;;37.45;21.13;;;;;;;5.89;50.41;100173.84;5225184;28;20049;-80
2022/03/20 04:29:07;;;;;;;46.67;21.90;;;;;;;6.00;49.96;100181.16;5225490;28;20514;-80
2022/03/20 04:31:57;;;;;;;44.17;23.10;;;;;;;5.84;50.69;100160.06;5225786;28;20441;-81
2022/03/20 04:34:48;;;;;;;42.28;22.63;;;;;;;6.06;49.81;100175.56;5214355;28;20055;-81
2022/03/20 04:37:37;;;;;;;41.95;23.20;;;;;;;5.88;50.11;100181.81;5225477;28;20127;-81
2022/03/20 04:40:28;;;;;;;45.22;24.25;;;;;;;5.91;51.55;100192.16;5211111;28;20052;-80
2022/03/20 04:43:18;;;;;;;42.17;22.80;;;;;;;6.05;49.49;100181.72;5211713;28;20085;-80
2022/03/20 04:46:08;;;;;;;42.55;22.83;;;;;;;5.69;50.20;100158.28;5224916;28;20106;-81
2022/03/20 04:58:30;;;;;;;43.55;22.95;;;;;;;5.37;51.51;100179.28;5225839;28;20474;-79
2022/03/20 05:01:23;;;;;;;40.80;22.02;;;;;;;5.55;51.45;100190.59;5224549;28;20056;-81
2022/03/20 05:04:14;;;;;;;46.53;23.08;;;;;;;5.54;50.98;100186.28;5224349;28;20525;-80
2022/03/20 05:07:05;;;;;;;47.53;23.45;;;;;;;5.65;51.06;100202.31;5224268;28;20052;-80
2022/03/20 05:13:20;;;;;;;43.22;23.42;;;;;;;5.55;51.04;100195.03;5237670;22;20635;-69
2022/03/20 05:16:10;;;;;;;46.22;24.95;;;;;;;5.51;51.53;100180.34;5226587;28;20075;-68
2022/03/20 05:19:00;;;;;;;53.95;24.65;;;;;;;5.65;51.50;100198.84;5197883;28;20052;-69
2022/03/20 05:21:50;;;;;;;45.00;23.63;;;;;;;5.83;51.05;100202.28;5190514;28;20053;-68
2022/03/20 05:24:41;;;;;;;52.88;24.92;;;;;;;5.98;50.66;100204.09;5198836;28;20065;-68
2022/03/20 05:27:31;;;;;;;44.65;22.98;;;;;;;6.25;49.80;100211.38;5200961;28;20538;-69
2022/03/20 05:30:26;;;;;;;45.08;24.55;;;;;;;6.18;49.91;100200.34;5198435;28;20064;-68
2022/03/20 05:33:16;;;;;;;47.80;24.25;;;;;;;6.40;48.62;100215.78;5199862;28;20509;-68
2022/03/20 05:36:12;;;;;;;50.55;23.98;;;;;;;6.11;49.47;100209.50;5198666;28;20106;-69
2022/03/20 05:39:02;;;;;;;51.60;26.08;;;;;;;6.30;49.77;100222.50;5195619;28;20052;-68
2022/03/20 05:41:52;;;;;;;55.25;26.08;;;;;;;5.98;50.35;100225.13;5197253;28;20045;-68
2022/03/20 05:44:46;;;;;;;52.30;27.15;;;;;;;6.03;50.86;100217.84;5200844;28;20076;-68
2022/03/20 05:47:38;;;;;;;51.95;26.65;;;;;;;6.18;51.00;100221.41;5200530;28;20053;-68
2022/03/20 05:50:27;;;;;;;49.55;25.17;;;;;;;6.46;49.68;100210.16;5201517;28;20115;-68
2022/03/20 05:53:17;;;;;;;46.65;26.13;;;;;;;6.70;49.48;100230.78;5199394;28;20063;-68
2022/03/20 05:59:16;;;;;;;61.15;30.88;;;;;;;6.50;51.43;100248.56;5201279;28;20119;-68
2022/03/20 06:02:09;;;;;;;58.20;29.65;;;;;;;6.33;52.79;100244.25;5187365;28;20530;-68
2022/03/20 06:04:59;;;;;;;50.00;27.42;;;;;;;6.24;52.67;100222.84;5197302;28;20427;-67
2022/03/20 06:07:49;;;;;;;49.85;26.70;;;;;;;6.46;52.01;100241.78;5190962;28;20496;-68
2022/03/20 06:10:40;;;;;;;48.08;25.83;;;;;;;6.45;51.47;100234.78;5196586;28;20053;-68
2022/03/20 06:13:31;;;;;;;47.25;26.02;;;;;;;6.70;52.02;100242.16;5192812;28;20057;-68
2022/03/20 06:16:22;;;;;;;49.92;28.00;;;;;;;6.85;51.15;100245.69;5192231;28;20191;-68
2022/03/20 06:19:15;;;;;;;51.13;27.02;;;;;;;7.01;50.67;100254.38;5198414;28;20124;-68
2022/03/20 06:22:05;;;;;;;53.30;27.05;;;;;;;7.18;49.59;100255.19;5199131;28;20064;-68
2022/03/20 06:24:55;;;;;;;53.95;27.73;;;;;;;7.52;49.38;100249.59;5200567;28;20080;-68
2022/03/20 06:27:50;;;;;;;52.20;27.33;;;;;;;7.64;49.30;100247.13;5200351;28;20057;-67
2022/03/20 06:30:40;;;;;;;49.78;27.17;;;;;;;7.75;48.71;100256.09;5194220;28;20080;-68
2022/03/20 06:33:29;;;;;;;53.85;28.05;;;;;;;7.92;48.69;100259.47;5206126;28;20172;-68
2022/03/20 06:36:20;;;;;;;52.72;28.05;;;;;;;8.07;47.06;100252.38;5198954;28;20103;-68
2022/03/20 06:39:09;;;;;;;49.65;26.83;;;;;;;8.23;47.60;100256.56;5201251;28;20068;-68
2022/03/20 06:42:00;;;;;;;47.88;25.75;;;;;;;8.46;46.36;100260.41;5195423;28;20081;-68
2022/03/20 06:44:50;;;;;;;48.20;27.35;;;;;;;8.30;47.42;100259.66;5196770;28;20136;-68
2022/03/20 06:47:42;;;;;;;55.35;27.45;;;;;;;8.28;46.79;100258.94;5201204;28;20045;-68
2022/03/20 06:50:33;;;;;;;53.58;28.55;;;;;;;8.41;47.08;100259.88;5201639;28;20132;-68
2022/03/20 06:53:23;;;;;;;49.08;26.83;;;;;;;8.81;46.95;100261.72;5197675;28;20515;-68
2022/03/20 06:56:13;;;;;;;46.20;25.13;;;;;;;8.95;45.75;100269.56;5202198;28;20053;-68
2022/03/20 06:59:03;;;;;;;52.20;27.27;;;;;;;8.92;45.78;100272.41;5200254;28;20119;-68
2022/03/20 07:01:53;;;;;;;52.30;28.92;;;;;;;9.10;46.07;100276.47;5204840;28;20107;-68
2022/03/20 07:04:43;;;;;;;51.58;27.98;;;;;;;9.45;44.41;100278.53;5205240;28;20056;-68
2022/03/20 07:07:34;;;;;;;50.67;27.27;;;;;;;9.44;44.15;100275.97;5200051;28;20407;-68
2022/03/20 07:10:25;;;;;;;46.30;26.38;;;;;;;9.70;43.35;100288.31;5198255;28;20594;-68
2022/03/20 07:16:29;;;;;;;50.00;26.80;;;;;;;10.11;42.74;100297.78;5198928;28;20064;-68
2022/03/20 07:19:19;;;;;;;48.90;26.98;;;;;;;10.24;42.91;100295.94;5201770;28;20095;-68
2022/03/20 07:22:11;;;;;;;50.88;27.08;;;;;;;10.24;42.39;100288.00;5201336;28;20049;-68
2022/03/20 07:31:21;;;;;;;47.08;26.30;;;;;;;10.63;43.33;100302.03;5203121;28;20052;-68
2022/03/20 07:34:11;;;;;;;52.40;27.70;;;;;;;10.95;42.13;100289.00;5200554;28;20056;-69
2022/03/20 07:37:01;;;;;;;50.50;27.10;;;;;;;11.60;41.38;100300.06;5197271;28;20144;-68
2022/03/20 07:39:52;;;;;;;45.53;26.75;;;;;;;11.82;39.40;100296.56;5202801;28;20645;-68
2022/03/20 07:42:42;;;;;;;50.78;26.67;;;;;;;12.62;37.82;100302.59;5204073;28;20060;-68
2022/03/20 07:45:32;;;;;;;45.08;26.00;;;;;;;12.83;37.30;100301.78;5203738;28;20093;-68
2022/03/20 07:48:23;;;;;;;44.03;25.98;;;;;;;12.35;38.33;100300.34;5198163;28;20049;-68
2022/03/20 07:51:16;;;;;;;44.22;25.90;;;;;;;11.96;39.17;100309.69;5201078;28;20791;-68
2022/03/20 07:54:06;;;;;;;46.40;26.73;;;;;;;12.69;36.89;100311.75;5199426;28;20424;-68
2022/03/20 07:56:56;;;;;;;47.65;27.25;;;;;;;12.88;37.12;100288.94;5202843;28;20566;-68
2022/03/20 07:59:47;;;;;;;46.65;26.42;;;;;;;12.29;38.00;100300.84;5194013;28;20049;-68
2022/03/20 08:02:37;;;;;;;43.75;25.73;;;;;;;12.44;37.86;100296.91;5197390;28;20056;-68
2022/03/20 08:05:27;;;;;;;47.15;25.65;;;;;;;11.71;38.50;100300.91;5202694;28;20056;-68
2022/03/20 08:08:17;;;;;;;44.45;25.70;;;;;;;12.44;37.30;100296.09;5202956;28;20052;-68
2022/03/20 08:11:08;;;;;;;42.83;25.23;;;;;;;12.15;38.72;100298.41;5203147;28;20056;-67
2022/03/20 08:13:58;;;;;;;42.85;25.15;;;;;;;11.76;38.81;100300.56;5190333;28;20054;-67
2022/03/20 08:16:49;;;;;;;42.67;23.88;;;;;;;13.77;35.87;100292.94;5199116;28;20100;-67
2022/03/20 08:19:40;;;;;;;46.58;25.58;;;;;;;13.67;35.43;100310.72;5197345;28;20052;-67
2022/03/20 08:22:30;;;;;;;43.63;25.55;;;;;;;14.15;35.80;100307.44;5199999;28;20417;-67
2022/03/20 08:25:21;;;;;;;44.63;26.00;;;;;;;13.40;35.51;100317.41;5200773;28;20055;-67
2022/03/20 08:28:12;;;;;;;51.58;27.05;;;;;;;13.78;35.09;100293.81;5198303;28;20042;-69
2022/03/20 08:31:06;;;;;;;40.90;25.75;;;;;;;13.68;35.67;100307.09;5198211;28;20132;-67
2022/03/20 08:33:57;;;;;;;39.13;24.98;;;;;;;13.86;36.04;100307.31;5200567;28;20041;-67
2022/03/20 08:36:47;;;;;;;43.05;25.45;;;;;;;13.93;35.38;100302.28;5192209;28;20135;-67
2022/03/20 08:39:37;;;;;;;44.28;26.10;;;;;;;14.57;35.36;100313.50;5199883;28;20042;-68
2022/03/20 08:42:28;;;;;;;40.08;24.08;;;;;;;14.11;35.44;100316.69;5198949;28;20461;-69
2022/03/20 08:45:18;;;;;;;41.08;25.33;;;;;;;15.09;33.59;100307.09;5202453;28;20127;-67
2022/03/20 08:48:09;;;;;;;42.97;25.95;;;;;;;14.81;33.77;100322.97;5201284;28;20057;-68
2022/03/20 08:50:59;;;;;;;45.10;25.40;;;;;;;15.60;32.42;100322.78;5200500;28;20064;-67
2022/03/20 08:53:50;;;;;;;40.92;25.77;;;;;;;15.57;33.56;100327.59;5200439;28;20533;-68
2022/03/20 08:56:40;;;;;;;41.88;25.83;;;;;;;15.77;32.62;100323.91;5199534;28;20049;-68
2022/03/20 08:59:30;;;;;;;41.95;26.75;;;;;;;16.58;31.86;100328.63;5200570;28;20044;-67
2022/03/20 09:02:20;;;;;;;46.20;26.15;;;;;;;17.30;30.80;100333.06;5198301;28;20811;-67
2022/03/20 09:05:12;;;;;;;44.17;25.45;;;;;;;17.66;31.02;100327.66;5196749;28;20164;-67
2022/03/20 09:08:02;;;;;;;39.58;24.92;;;;;;;18.04;30.38;100330.94;5198958;28;20056;-66
2022/03/20 09:10:52;;;;;;;39.53;25.00;;;;;;;17.05;30.33;100333.84;5200462;28;20140;-68
2022/03/20 09:13:42;;;;;;;41.85;26.38;;;;;;;17.43;30.17;100318.44;5196977;28;20060;-66
2022/03/20 09:19:41;;;;;;;44.13;26.58;;;;;;;17.87;30.34;100335.38;5199356;28;20455;-67
2022/03/20 09:22:31;;;;;;;38.88;25.85;;;;;;;17.47;30.14;100341.25;5199051;28;20573;-67
2022/03/20 09:25:22;;;;;;;42.30;25.88;;;;;;;15.96;31.55;100342.59;5195981;28;20076;-67
2022/03/20 09:28:12;;;;;;;43.17;26.27;;;;;;;15.61;32.21;100320.97;5198954;28;20183;-70
2022/03/20 09:31:03;;;;;;;40.35;25.48;;;;;;;16.86;32.38;100333.00;5186727;28;20053;-67
2022/03/20 09:33:53;;;;;;;42.08;26.05;;;;;;;16.40;31.85;100342.81;5193730;28;20634;-67
2022/03/20 09:36:44;;;;;;;41.33;25.23;;;;;;;17.28;31.93;100345.78;5187920;28;20064;-67
2022/03/20 09:39:34;;;;;;;41.50;26.08;;;;;;;17.22;31.65;100348.25;5199356;28;20045;-67
2022/03/20 09:42:25;;;;;;;42.95;24.83;;;;;;;17.74;30.38;100338.44;5199565;28;20126;-67
2022/03/20 09:45:17;;;;;;;40.17;25.70;;;;;;;17.33;30.52;100342.66;5199456;28;20050;-67
2022/03/20 09:48:08;;;;;;;41.38;26.33;;;;;;;17.99;30.63;100344.00;5197035;28;20075;-68
2022/03/20 09:51:00;;;;;;;41.95;26.00;;;;;;;18.40;29.63;100349.56;5198573;28;20045;-66
2022/03/20 09:53:50;;;;;;;40.17;24.90;;;;;;;18.26;29.33;100351.03;5200381;28;20053;-68
2022/03/20 09:56:44;;;;;;;40.10;25.52;;;;;;;17.64;30.17;100344.91;5199622;28;20519;-67
2022/03/20 09:59:36;;;;;;;41.78;26.23;;;;;;;17.19;31.05;100348.56;5195285;28;20041;-66
2022/03/20 10:02:27;;;;;;;39.75;25.77;;;;;;;18.47;30.40;100359.50;5198244;28;20084;-66
2022/03/20 10:05:25;;;;;;;39.78;25.85;;;;;;;18.91;31.47;100358.53;5200740;28;20049;-67
2022/03/20 10:08:19;;;;;;;38.97;25.00;;;;;;;18.57;28.43;100356.69;5201220;28;20041;-67
2022/03/20 10:11:17;;;;;;;43.03;25.92;;;;;;;16.82;30.86;100358.41;5201005;28;20672;-67
2022/03/20 10:14:21;;;;;;;39.70;25.30;;;;;;;17.23;31.02;100357.97;5196253;28;20101;-67
2022/03/20 10:17:14;;;;;;;41.15;25.90;;;;;;;16.84;30.90;100367.13;5205783;28;20155;-67
2022/03/20 10:20:18;;;;;;;44.95;26.80;;;;;;;16.47;32.82;100359.13;5197675;28;20053;-67
2022/03/20 10:23:27;;;;;;;;;;;;;;;17.07;32.33;100366.69;5200686;28;20589;-67
2022/03/20 10:26:17;;;;;;;40.35;25.60;;;;;;;17.36;30.74;100359.28;5196337;28;19982;-67
2022/03/20 10:29:15;;;;;;;;;;;;;;;16.95;31.40;100359.88;5197106;28;20053;-69
2022/03/20 10:32:09;;;;;;;41.80;25.65;;;;;;;16.45;32.66;100361.94;5203759;28;20418;-68
2022/03/20 10:35:04;;;;;;;41.28;25.90;;;;;;;17.05;31.56;100361.50;5199621;28;20049;-68
2022/03/20 10:37:58;;;;;;;41.20;25.60;;;;;;;16.33;33.06;100359.63;5202200;28;20072;-68
2022/03/20 10:40:48;;;;;;;44.97;26.55;;;;;;;16.71;32.26;100365.78;5198184;28;20061;-67
2022/03/20 10:43:41;;;;;;;43.38;25.33;;;;;;;16.63;34.01;100358.50;5202998;28;20073;-69
2022/03/20 10:46:32;;;;;;;41.22;25.13;;;;;;;17.20;32.30;100356.44;5200948;28;20107;-66
2022/03/20 10:49:23;;;;;;;43.90;24.40;;;;;;;16.36;33.04;100352.16;5199854;28;20401;-68
2022/03/20 10:52:20;;;;;;;37.25;24.40;;;;;;;16.72;33.09;100360.28;5199659;28;20061;-68
2022/03/20 10:55:12;;;;;;;39.72;24.42;;;;;;;16.79;32.73;100361.41;5203198;28;20115;-68
2022/03/20 10:58:20;;;;;;;42.83;25.70;;;;;;;16.97;33.05;100357.88;5201757;28;20050;-67
2022/03/20 11:01:12;;;;;;;39.50;25.02;;;;;;;17.42;32.19;100359.63;5199663;28;20071;-67
2022/03/20 11:04:05;;;;;;;44.10;25.40;;;;;;;18.22;32.41;100353.19;5202311;28;20633;-68
2022/03/20 11:06:55;;;;;;;43.45;23.95;;;;;;;18.33;33.84;100360.13;5198838;28;20051;-69
2022/03/20 11:09:50;;;;;;;41.47;24.10;;;;;;;18.78;32.44;100343.72;5201240;28;20529;-68
2022/03/20 11:12:41;;;;;;;41.80;24.40;;;;;;;18.64;31.50;100344.31;5201926;28;20154;-68
2022/03/20 11:15:34;;;;;;;37.80;23.58;;;;;;;18.54;31.91;100347.13;5206546;28;20131;-67
2022/03/20 11:18:28;;;;;;;44.20;24.23;;;;;;;18.36;32.21;100342.84;5200042;28;20057;-67
2022/03/20 11:21:26;;;;;;;40.83;24.37;;;;;;;17.84;32.25;100341.88;5198938;28;20057;-67
2022/03/20 11:24:17;;;;;;;38.83;23.70;;;;;;;17.96;31.81;100337.09;5200902;28;20544;-67
2022/03/20 11:27:11;;;;;;;42.33;25.48;;;;;;;18.36;32.83;100343.69;5201730;28;20053;-68
2022/03/20 11:30:05;;;;;;;41.33;24.60;;;;;;;17.27;32.92;100335.22;5201236;28;20076;-67
2022/03/20 11:32:59;;;;;;;48.30;27.02;;;;;;;16.64;33.40;100352.97;5199992;28;20566;-69
2022/03/20 11:35:50;;;;;;;38.38;23.60;;;;;;;17.26;33.14;100350.47;5192747;28;20060;-69
2022/03/20 11:38:41;;;;;;;41.60;23.60;;;;;;;17.25;32.83;100343.44;5199537;28;20573;-68
2022/03/20 11:41:31;;;;;;;43.90;22.95;;;;;;;17.28;33.34;100327.03;5200258;28;20138;-70
2022/03/20 11:44:21;;;;;;;41.45;22.42;;;;;;;17.37;33.51;100346.72;5200375;28;20122;-69
2022/03/20 11:47:14;;;;;;;39.08;22.10;;;;;;;17.52;34.57;100341.66;5196786;28;20158;-69
2022/03/20 11:50:19;;;;;;;37.45;21.77;;;;;;;18.03;35.54;100342.69;5204231;28;20077;-69
2022/03/20 11:53:10;;;;;;;38.97;22.73;;;;;;;17.50;34.63;100341.78;5196780;28;20060;-69
2022/03/20 11:56:00;;;;;;;35.00;20.80;;;;;;;17.73;34.65;100342.13;5202041;28;20084;-69
2022/03/20 11:58:50;;;;;;;38.95;21.52;;;;;;;18.12;34.93;100339.03;5195019;28;20459;-70
2022/03/20 12:02:01;;;;;;;39.35;22.02;;;;;;;18.88;35.91;100332.81;5190521;28;20053;-68
2022/03/20 12:05:09;;;;;;;37.22;22.10;;;;;;;18.33;32.75;100327.91;5200385;28;20135;-69
2022/03/20 12:08:15;;;;;;;39.80;22.08;;;;;;;17.88;33.55;100328.16;5201465;28;20411;-69
2022/03/20 12:11:20;;;;;;;37.30;22.65;;;;;;;17.29;33.79;100328.72;5196895;28;20531;-68
2022/03/20 12:14:36;;;;;;;39.78;22.45;;;;;;;17.61;33.35;100316.53;5202233;28;20124;-69
2022/03/20 12:17:56;;;;;;;37.83;21.25;;;;;;;18.23;32.95;100322.66;5201634;28;20057;-69
2022/03/20 12:21:02;;;;;;;34.10;20.70;;;;;;;18.01;33.08;100317.84;5210937;28;20518;-68
2022/03/20 12:23:53;;;;;;;38.33;20.45;;;;;;;18.19;33.98;100318.63;5199227;28;20057;-69
2022/03/20 12:26:46;;;;;;;37.83;20.33;;;;;;;18.39;32.11;100313.00;5200443;28;20060;-69
2022/03/20 12:29:36;;;;;;;36.78;20.85;;;;;;;17.04;33.69;100306.22;5200271;28;20514;-69
2022/03/20 12:32:47;;;;;;;39.50;22.05;;;;;;;17.38;34.42;100302.81;5198842;28;20081;-68
2022/03/20 12:35:45;;;;;;;40.42;22.33;;;;;;;17.16;34.80;100304.16;5201705;28;20060;-69
2022/03/20 12:38:44;;;;;;;38.30;22.02;;;;;;;16.85;34.27;100301.88;5203456;28;20507;-69
2022/03/20 12:41:34;;;;;;;37.67;21.63;;;;;;;17.78;33.41;100298.75;5202287;28;20132;-69
2022/03/20 12:44:24;;;;;;;38.03;22.33;;;;;;;17.15;33.30;100256.88;5197393;28;20700;-68
2022/03/20 12:47:22;;;;;;;39.58;21.75;;;;;;;17.77;33.29;100299.75;5201809;28;20085;-69
2022/03/20 12:50:15;;;;;;;33.83;20.20;;;;;;;17.86;34.36;100287.25;5201330;28;20053;-68
2022/03/20 12:53:07;;;;;;;34.25;20.25;;;;;;;17.62;34.30;100286.06;5196816;28;20072;-69
2022/03/20 12:56:00;;;;;;;34.22;20.10;;;;;;;18.39;35.11;100288.81;5201374;28;20107;-70
2022/03/20 12:58:50;;;;;;;35.38;20.20;;;;;;;16.95;34.90;100287.53;5194588;28;20480;-70
2022/03/20 13:01:40;;;;;;;35.72;19.80;;;;;;;17.53;35.58;100287.84;5205852;28;20565;-68
2022/03/20 13:04:31;;;;;;;37.38;20.38;;;;;;;18.07;33.77;100272.41;5196226;28;20064;-70
2022/03/20 13:07:24;;;;;;;37.45;19.60;;;;;;;16.67;34.14;100275.03;5199062;28;20261;-68
2022/03/20 13:10:16;;;;;;;38.27;18.23;;;;;;;16.96;34.10;100257.91;5199879;28;20123;-69
2022/03/20 13:13:34;;;;;;;36.10;18.90;;;;;;;17.81;33.20;100267.09;5198504;28;20052;-67
2022/03/20 13:16:26;;;;;;;34.80;17.48;;;;;;;17.19;33.93;100266.31;5196407;28;20100;-67
2022/03/20 13:19:25;;;;;;;29.85;17.23;;;;;;;16.83;33.45;100268.19;5198626;28;20041;-69
2022/03/20 13:22:16;;;;;;;35.08;17.10;;;;;;;16.76;33.86;100257.25;5197755;28;20057;-68
2022/03/20 13:25:22;;;;;;;28.52;14.40;;;;;;;17.61;33.34;100246.81;5200066;28;20171;-67
2022/03/20 13:28:30;;;;;;;26.17;15.02;;;;;;;18.09;31.54;100256.16;5199021;28;20063;-68
2022/03/20 13:31:23;;;;;;;24.95;15.00;;;;;;;17.91;32.45;100258.06;5194884;28;20052;-68
2022/03/20 13:34:19;;;;;;;29.40;14.90;;;;;;;18.29;32.01;100246.00;5187372;28;20133;-68
2022/03/20 13:37:12;;;;;;;34.47;15.85;;;;;;;18.10;32.06;100251.63;5186634;28;20060;-68
2022/03/20 13:40:02;;;;;;;33.50;16.90;;;;;;;17.98;32.03;100245.69;5202238;28;20122;-69
2022/03/20 13:42:52;;;;;;;37.20;17.90;;;;;;;17.87;32.85;100244.13;5195709;28;20057;-69
2022/03/20 13:45:42;;;;;;;33.35;17.10;;;;;;;18.35;32.06;100236.47;5192081;28;20228;-69
2022/03/20 13:48:36;;;;;;;31.95;17.23;;;;;;;18.88;30.81;100229.84;5193947;28;20419;-68